Time;durP1;ratioP1;P1;durP2;ratioP2;P2;SDS_P1;SDS_P2;PMS_P1;PMS_P2;Temp;Humidity;BMP_temperature;BMP_pressure;BME280_temperature;BME280_humidity;BME280_pressure;Samples;Min_cycle;Max_cycle;Signal;HPM_P1;HPM_P2
2021/08/02 00:00:54;;;;;;;9.57;6.65;;;22.50;99.90;;;;;;4362175;32;20468;-73
2021/08/02 00:03:30;;;;;;;9.20;7.10;;;22.40;99.90;;;;;;4337653;32;20080;-72
2021/08/02 00:05:57;;;;;;;;;;;22.40;99.90;;;;;;4350314;32;20187;-72
2021/08/02 00:08:26;;;;;;;10.45;6.95;;;22.40;99.90;;;;;;4324824;32;19966;-72
2021/08/02 00:10:52;;;;;;;8.02;6.60;;;22.40;99.90;;;;;;4349674;32;20170;-73
2021/08/02 00:13:24;;;;;;;9.50;7.10;;;22.40;99.90;;;;;;4337150;32;20090;-73
2021/08/02 00:15:50;;;;;;;9.50;7.35;;;22.20;99.90;;;;;;4362106;32;20086;-72
2021/08/02 00:18:16;;;;;;;8.35;7.18;;;22.30;99.90;;;;;;4339458;32;20119;-73
2021/08/02 00:20:43;;;;;;;9.93;6.82;;;22.40;99.90;;;;;;4339686;32;20504;-73
2021/08/02 00:23:10;;;;;;;9.50;7.07;;;22.50;99.90;;;;;;4363759;32;20099;-73
2021/08/02 00:25:36;;;;;;;8.43;6.75;;;22.40;99.90;;;;;;4351174;32;20159;-73
2021/08/02 00:28:04;;;;;;;9.73;6.75;;;22.40;99.90;;;;;;4339297;32;20242;-73
2021/08/02 00:30:30;;;;;;;9.13;6.90;;;22.40;99.90;;;;;;4351473;32;20075;-72
2021/08/02 00:32:57;;;;;;;12.20;6.72;;;22.40;99.90;;;;;;4351893;32;20082;-73
2021/08/02 00:35:23;;;;;;;8.43;6.70;;;22.60;99.90;;;;;;4338846;32;20523;-72
2021/08/02 00:37:58;;;;;;;8.48;6.53;;;22.70;99.90;;;;;;4351449;32;20082;-73
2021/08/02 00:40:43;;;;;;;10.48;6.65;;;22.80;99.90;;;;;;4351363;32;20066;-73
2021/08/02 00:43:54;;;;;;;8.38;6.60;;;22.60;99.90;;;;;;4375934;32;20073;-72
2021/08/02 00:46:25;;;;;;;7.78;6.45;;;22.80;99.90;;;;;;4376236;32;20073;-73
2021/08/02 00:49:04;;;;;;;7.97;6.43;;;22.90;99.90;;;;;;4364046;32;20066;-72
2021/08/02 00:51:47;;;;;;;7.93;6.00;;;23.00;99.90;;;;;;4351696;32;20501;-73
2021/08/02 00:54:14;;;;;;;9.15;6.47;;;23.00;99.90;;;;;;4339534;32;20096;-73
2021/08/02 00:56:40;;;;;;;9.35;6.20;;;23.10;99.90;;;;;;4339229;32;20158;-71
2021/08/02 00:59:07;;;;;;;8.50;5.87;;;22.90;99.90;;;;;;4363480;32;20077;-72
2021/08/02 01:01:35;;;;;;;8.48;5.70;;;23.00;99.90;;;;;;4351287;32;20165;-72
2021/08/02 01:04:02;;;;;;;9.07;5.65;;;23.00;99.90;;;;;;4363812;32;20086;-73
2021/08/02 01:06:30;;;;;;;6.95;5.68;;;23.20;99.90;;;;;;4363407;32;20609;-73
2021/08/02 01:08:56;;;;;;;7.65;6.05;;;23.30;99.90;;;;;;4350951;32;20166;-72
2021/08/02 01:11:23;;;;;;;10.93;5.90;;;23.20;99.90;;;;;;4350975;32;20145;-72
2021/08/02 01:13:50;;;;;;;8.55;6.55;;;23.00;99.90;;;;;;4350911;32;20092;-73
2021/08/02 01:16:16;;;;;;;10.15;6.22;;;22.60;99.90;;;;;;4360562;32;20078;-72
2021/08/02 01:18:42;;;;;;;7.00;5.40;;;22.40;99.90;;;;;;4335744;32;20694;-73
2021/08/02 01:21:12;;;;;;;7.50;5.70;;;22.90;99.90;;;;;;4335977;32;20086;-73
2021/08/02 01:23:38;;;;;;;7.47;5.43;;;23.10;99.90;;;;;;4348496;32;20202;-72
2021/08/02 01:26:05;;;;;;;8.85;5.90;;;23.10;99.90;;;;;;4347873;32;20078;-72
2021/08/02 01:28:31;;;;;;;8.65;5.70;;;23.20;99.90;;;;;;4360650;32;20073;-73
2021/08/02 01:30:59;;;;;;;9.65;6.45;;;23.20;99.90;;;;;;4362285;32;20066;-72
2021/08/02 01:33:36;;;;;;;8.52;5.90;;;22.90;99.90;;;;;;4360672;32;20087;-73
2021/08/02 01:36:05;;;;;;;13.68;8.23;;;22.60;99.90;;;;;;4349071;32;20095;-73
2021/08/02 01:38:32;;;;;;;14.05;8.57;;;22.10;99.90;;;;;;4335745;32;20081;-73
2021/08/02 01:40:58;;;;;;;14.85;8.90;;;21.70;99.90;;;;;;4348286;32;20531;-72
2021/08/02 01:43:25;;;;;;;12.70;8.38;;;21.60;99.90;;;;;;4348387;32;20077;-73
2021/08/02 01:46:11;;;;;;;17.05;9.00;;;21.60;99.90;;;;;;4335936;32;20179;-73
2021/08/02 01:49:01;;;;;;;12.77;8.95;;;21.70;99.90;;;;;;4348607;32;20098;-73
2021/08/02 01:51:46;;;;;;;13.23;9.65;;;21.20;99.90;;;;;;4347899;32;20071;-73
2021/08/02 01:54:49;;;;;;;14.25;9.27;;;20.80;99.90;;;;;;4348089;32;20179;-72
2021/08/02 01:57:28;;;;;;;12.55;8.63;;;21.20;99.90;;;;;;4347909;32;20156;-73
2021/08/02 02:00:11;;;;;;;15.25;10.23;;;21.40;99.90;;;;;;4360094;32;20078;-73
2021/08/02 02:02:38;;;;;;;15.52;9.93;;;21.20;99.90;;;;;;4335396;32;20174;-73
2021/08/02 02:05:17;;;;;;;15.88;10.07;;;21.00;99.90;;;;;;4335827;32;20198;-73
2021/08/02 02:07:51;;;;;;;16.33;10.13;;;21.30;99.90;;;;;;4338059;32;20094;-73
2021/08/02 02:10:20;;;;;;;21.52;11.12;;;21.30;99.90;;;;;;4335849;32;20089;-73
2021/08/02 02:12:47;;;;;;;23.02;13.18;;;21.30;99.90;;;;;;4348088;32;20163;-73
2021/08/02 02:15:13;;;;;;;21.60;12.23;;;21.30;99.90;;;;;;4347910;32;20163;-73
2021/08/02 02:17:39;;;;;;;18.70;11.68;;;21.30;99.90;;;;;;4347632;32;20079;-73
2021/08/02 02:20:06;;;;;;;21.70;12.37;;;21.30;99.90;;;;;;4348068;32;20153;-73
2021/08/02 02:22:33;;;;;;;19.05;11.85;;;21.50;99.90;;;;;;4335359;32;20078;-72
2021/08/02 02:25:01;;;;;;;16.35;11.18;;;21.50;99.90;;;;;;4323144;32;20082;-72
2021/08/02 02:27:27;;;;;;;19.23;11.75;;;21.60;99.90;;;;;;4335595;32;20066;-72
2021/08/02 02:29:53;;;;;;;20.27;12.15;;;21.50;99.90;;;;;;4347735;32;20512;-73
2021/08/02 02:32:20;;;;;;;15.35;11.82;;;21.50;99.90;;;;;;4335656;32;20096;-73
2021/08/02 02:34:47;;;;;;;20.52;12.65;;;21.50;99.90;;;;;;4335551;32;20082;-72
2021/08/02 02:37:13;;;;;;;16.83;11.07;;;21.60;99.90;;;;;;4335385;32;20177;-72
2021/08/02 02:39:39;;;;;;;21.70;12.20;;;21.70;99.90;;;;;;4338265;32;20098;-72
2021/08/02 02:42:06;;;;;;;21.20;13.05;;;21.70;99.90;;;;;;4338010;32;20071;-73
2021/08/02 02:44:32;;;;;;;21.62;13.55;;;21.70;99.90;;;;;;4350656;32;20160;-74
2021/08/02 02:46:58;;;;;;;20.62;12.65;;;21.70;99.90;;;;;;4350156;32;20094;-73
2021/08/02 02:49:24;;;;;;;17.95;11.10;;;21.70;99.90;;;;;;4338005;32;20537;-73
2021/08/02 02:51:51;;;;;;;16.75;10.88;;;21.70;99.90;;;;;;4350459;32;20073;-73
2021/08/02 02:54:21;;;;;;;16.95;10.77;;;21.80;99.90;;;;;;4338237;32;20067;-73
2021/08/02 02:56:47;;;;;;;17.80;11.02;;;22.00;99.90;;;;;;4337801;32;20602;-72
2021/08/02 02:59:13;;;;;;;18.25;12.20;;;21.90;99.90;;;;;;4349915;32;20081;-72
2021/08/02 03:01:44;;;;;;;17.60;11.18;;;21.80;99.90;;;;;;4350601;32;20090;-72
2021/08/02 03:04:10;;;;;;;21.27;11.48;;;21.90;99.90;;;;;;4338386;32;20089;-72
2021/08/02 03:06:38;;;;;;;14.48;10.15;;;22.10;99.90;;;;;;4338077;32;20087;-73
2021/08/02 03:09:04;;;;;;;17.10;12.35;;;22.10;99.90;;;;;;4350196;32;20077;-72
2021/08/02 03:11:30;;;;;;;15.98;10.73;;;22.00;99.90;;;;;;4350115;32;20525;-72
2021/08/02 03:13:57;;;;;;;18.15;11.23;;;22.00;99.90;;;;;;4349825;32;20083;-73
2021/08/02 03:16:26;;;;;;;15.88;11.00;;;22.20;99.90;;;;;;4337503;32;20109;-72
2021/08/02 03:18:53;;;;;;;17.65;10.80;;;22.40;99.90;;;;;;4338565;32;20094;-72
2021/08/02 03:21:20;;;;;;;16.77;11.30;;;22.40;99.90;;;;;;4337632;32;20120;-72
2021/08/02 03:24:13;;;;;;;14.57;10.98;;;22.50;99.90;;;;;;4350037;32;20090;-72
2021/08/02 03:26:56;;;;;;;15.80;10.48;;;22.70;99.90;;;;;;4337910;32;20075;-73
2021/08/02 03:29:35;;;;;;;13.90;10.95;;;22.80;99.90;;;;;;4338889;32;20082;-72
2021/08/02 03:32:05;;;;;;;20.75;11.60;;;23.00;99.90;;;;;;4338642;32;20239;-72
2021/08/02 03:34:32;;;;;;;15.30;10.60;;;23.00;99.90;;;;;;4350186;32;20070;-72
2021/08/02 03:37:00;;;;;;;17.35;10.75;;;23.10;99.90;;;;;;4337429;32;20222;-72
2021/08/02 03:39:26;;;;;;;14.70;10.98;;;23.20;99.90;;;;;;4337573;32;20591;-72
2021/08/02 03:41:52;;;;;;;16.12;11.23;;;23.30;99.90;;;;;;4349977;32;20080;-72
2021/08/02 03:44:19;;;;;;;14.15;10.98;;;23.30;99.90;;;;;;4349385;32;20086;-72
2021/08/02 03:46:46;;;;;;;13.07;10.45;;;23.50;99.90;;;;;;4337400;32;20440;-72
2021/08/02 03:49:12;;;;;;;18.75;10.73;;;23.60;99.90;;;;;;4349264;32;20077;-73
2021/08/02 03:52:00;;;;;;;16.92;10.95;;;23.70;99.90;;;;;;4361912;32;20436;-73
2021/08/02 03:54:28;;;;;;;19.87;11.25;;;23.80;99.90;;;;;;4350671;32;20543;-73
2021/08/02 03:56:55;;;;;;;16.50;10.88;;;24.00;99.90;;;;;;4337444;32;20081;-73
2021/08/02 03:59:22;;;;;;;14.25;10.80;;;24.10;99.90;;;;;;4349640;32;20452;-73
2021/08/02 04:01:49;;;;;;;16.60;11.30;;;24.20;99.90;;;;;;4349594;32;20078;-72
2021/08/02 04:04:15;;;;;;;13.52;10.32;;;24.20;99.90;;;;;;4349355;32;20169;-72
2021/08/02 04:06:42;;;;;;;18.17;11.32;;;24.30;99.90;;;;;;4349558;32;20582;-72
2021/08/02 04:09:10;;;;;;;13.77;9.40;;;24.40;99.90;;;;;;4337296;32;20516;-72
2021/08/02 04:11:37;;;;;;;17.80;9.48;;;24.60;99.90;;;;;;4336931;32;20601;-72
2021/08/02 04:14:04;;;;;;;14.43;9.73;;;24.60;99.90;;;;;;4349578;32;20090;-72
2021/08/02 04:16:31;;;;;;;16.90;10.63;;;24.70;99.90;;;;;;4348984;32;20086;-72
2021/08/02 04:18:57;;;;;;;12.40;9.10;;;24.80;99.90;;;;;;4349379;32;20082;-73
2021/08/02 04:21:23;;;;;;;11.80;8.35;;;24.90;99.90;;;;;;4337013;32;20167;-73
2021/08/02 04:23:49;;;;;;;13.40;7.40;;;25.10;99.90;;;;;;4363139;32;20487;-72
2021/08/02 04:26:15;;;;;;;11.45;7.72;;;25.10;99.90;;;;;;4362407;32;20082;-72
2021/08/02 04:28:43;;;;;;;10.60;6.87;;;25.30;99.90;;;;;;4336502;32;20070;-72
2021/08/02 04:31:10;;;;;;;9.70;5.82;;;25.20;99.90;;;;;;4349907;32;20101;-73
2021/08/02 04:33:37;;;;;;;8.32;5.90;;;25.40;99.90;;;;;;4349198;32;20457;-72
2021/08/02 04:36:04;;;;;;;8.35;5.87;;;25.60;99.90;;;;;;4349141;32;20102;-72
2021/08/02 04:38:31;;;;;;;5.68;4.85;;;25.60;99.90;;;;;;4336695;32;20085;-73
2021/08/02 04:40:57;;;;;;;6.30;5.18;;;26.00;99.90;;;;;;4336857;32;20170;-72
2021/08/02 04:43:24;;;;;;;7.80;5.65;;;26.10;99.90;;;;;;4336340;32;20608;-71
2021/08/02 04:45:50;;;;;;;7.50;4.95;;;28.10;99.90;;;;;;4337096;32;20087;-73
2021/08/02 04:48:16;;;;;;;5.90;4.93;;;29.00;90.70;;;;;;4348753;32;20086;-72
2021/08/02 04:50:44;;;;;;;7.03;5.00;;;29.90;77.70;;;;;;4336471;32;20062;-70
2021/08/02 04:53:11;;;;;;;9.70;5.43;;;30.10;71.60;;;;;;4348897;32;20062;-72
2021/08/02 04:55:37;;;;;;;6.68;5.32;;;30.60;66.10;;;;;;4336602;32;20086;-72
2021/08/02 04:58:04;;;;;;;7.32;4.97;;;30.60;66.40;;;;;;4336346;32;20465;-74
2021/08/02 05:00:30;;;;;;;7.12;4.87;;;30.20;63.80;;;;;;4350147;32;20089;-73
2021/08/02 05:03:56;;;;;;;8.85;5.43;;;29.80;62.50;;;;;;4337095;32;20088;-74
2021/08/02 05:07:23;;;;;;;8.73;5.53;;;31.00;57.10;;;;;;4361034;32;20102;-73
2021/08/02 05:10:50;;;;;;;5.82;4.50;;;30.70;55.40;;;;;;4360911;32;20468;-73
2021/08/02 05:13:16;;;;;;;6.45;4.87;;;30.70;54.90;;;;;;4361177;32;20073;-73
2021/08/02 05:15:42;;;;;;;7.55;4.70;;;31.10;50.00;;;;;;4348142;32;20119;-73
2021/08/02 05:18:08;;;;;;;6.55;5.32;;;30.80;50.50;;;;;;4348232;32;20070;-74
2021/08/02 05:20:35;;;;;;;7.07;5.32;;;30.80;48.90;;;;;;4348572;32;20078;-73
2021/08/02 05:23:01;;;;;;;6.07;4.55;;;30.90;47.40;;;;;;4336015;32;20526;-71
2021/08/02 05:25:27;;;;;;;9.80;4.68;;;31.40;46.50;;;;;;4348567;32;20083;-72
2021/08/02 05:27:53;;;;;;;8.65;5.35;;;31.40;47.50;;;;;;4361182;32;20075;-72
2021/08/02 05:30:20;;;;;;;5.87;4.87;;;31.60;45.90;;;;;;4348121;32;20183;-73
2021/08/02 05:32:46;;;;;;;5.53;4.43;;;31.20;47.00;;;;;;4335693;32;20162;-73
2021/08/02 05:35:12;;;;;;;6.55;4.97;;;32.40;43.20;;;;;;4348251;32;20156;-72
2021/08/02 05:37:39;;;;;;;7.80;4.95;;;31.90;43.10;;;;;;4347881;32;20078;-72
2021/08/02 05:40:06;;;;;;;5.68;4.40;;;30.80;46.30;;;;;;4335578;32;20089;-73
2021/08/02 05:42:32;;;;;;;5.55;4.20;;;30.80;46.00;;;;;;4347983;32;20066;-73
2021/08/02 05:44:58;;;;;;;6.05;4.87;;;30.50;47.30;;;;;;4347597;32;20083;-73
2021/08/02 05:47:24;;;;;;;5.95;4.00;;;31.60;45.00;;;;;;4323775;32;20501;-72
2021/08/02 05:49:52;;;;;;;7.25;4.37;;;31.30;44.40;;;;;;4347593;32;20101;-72
2021/08/02 05:52:18;;;;;;;6.00;4.25;;;31.40;45.30;;;;;;4347871;32;20609;-72
2021/08/02 05:54:44;;;;;;;6.32;4.30;;;31.40;43.70;;;;;;4335865;32;20075;-71
2021/08/02 05:57:11;;;;;;;7.32;5.07;;;32.20;42.70;;;;;;4347539;32;20087;-71
2021/08/02 05:59:37;;;;;;;7.03;4.93;;;31.50;42.40;;;;;;4323673;32;20164;-72
2021/08/02 06:02:03;;;;;;;6.68;4.43;;;31.60;42.50;;;;;;4335985;32;20071;-71
2021/08/02 06:04:30;;;;;;;6.93;5.40;;;31.70;43.00;;;;;;4336293;32;20112;-72
2021/08/02 06:06:56;;;;;;;8.30;5.00;;;31.30;42.90;;;;;;4359637;32;20457;-71
2021/08/02 06:09:22;;;;;;;6.18;4.97;;;31.40;42.30;;;;;;4347477;32;20085;-72
2021/08/02 06:11:49;;;;;;;9.88;5.50;;;32.40;41.10;;;;;;4335184;32;20085;-71
2021/08/02 06:14:15;;;;;;;7.80;4.90;;;32.70;39.30;;;;;;4359733;32;20157;-72
2021/08/02 06:16:42;;;;;;;6.12;4.82;;;33.10;39.50;;;;;;4334789;32;20506;-72
2021/08/02 06:19:08;;;;;;;6.72;4.70;;;32.10;38.90;;;;;;4335018;32;20070;-72
2021/08/02 06:21:34;;;;;;;7.25;4.53;;;33.00;38.30;;;;;;4347201;32;20081;-74
2021/08/02 06:24:01;;;;;;;9.32;4.70;;;33.70;35.80;;;;;;4347639;32;20191;-70
2021/08/02 06:26:27;;;;;;;8.02;4.87;;;32.50;36.60;;;;;;4348249;32;20082;-71
2021/08/02 06:28:53;;;;;;;9.38;5.25;;;32.50;38.30;;;;;;4347542;32;20085;-72
2021/08/02 06:31:19;;;;;;;8.27;4.70;;;31.30;39.60;;;;;;4347713;32;20073;-71
2021/08/02 06:33:45;;;;;;;5.87;4.68;;;30.90;42.60;;;;;;4347420;32;20166;-72
2021/08/02 06:36:11;;;;;;;9.68;5.03;;;30.90;42.20;;;;;;4359427;32;20063;-72
2021/08/02 06:38:38;;;;;;;6.20;4.97;;;30.50;42.20;;;;;;4347511;32;20090;-72
2021/08/02 06:41:04;;;;;;;6.80;5.35;;;30.60;42.70;;;;;;4347668;32;20074;-73
2021/08/02 06:44:31;;;;;;;5.68;3.92;;;30.40;43.20;;;;;;4347665;32;20083;-72
2021/08/02 06:47:57;;;;;;;6.55;4.43;;;30.60;42.10;;;;;;4361787;32;20082;-72
2021/08/02 06:51:24;;;;;;;5.93;4.68;;;30.90;41.60;;;;;;4359700;32;20063;-72
2021/08/02 06:53:51;;;;;;;7.78;4.80;;;31.10;41.30;;;;;;4361040;32;20094;-72
2021/08/02 06:56:17;;;;;;;7.15;5.20;;;30.90;43.10;;;;;;4359404;32;20151;-73
2021/08/02 06:58:43;;;;;;;5.80;4.82;;;31.30;42.40;;;;;;4345892;32;20500;-72
2021/08/02 07:01:09;;;;;;;6.55;4.80;;;31.30;41.10;;;;;;4360018;32;20158;-72
2021/08/02 07:03:35;;;;;;;5.87;4.30;;;31.50;39.20;;;;;;4338079;32;20098;-73
2021/08/02 07:06:02;;;;;;;6.87;4.60;;;31.40;39.40;;;;;;4326049;32;20158;-74
2021/08/02 07:08:28;;;;;;;6.50;4.93;;;31.00;40.10;;;;;;4334503;32;20066;-70
2021/08/02 07:10:54;;;;;;;5.97;4.00;;;30.70;39.60;;;;;;4351779;32;20094;-74
2021/08/02 07:13:20;;;;;;;7.80;5.22;;;31.00;39.00;;;;;;4336652;33;20079;-73
2021/08/02 07:15:46;;;;;;;6.00;4.62;;;31.50;38.10;;;;;;4353443;32;20086;-73
2021/08/02 07:18:12;;;;;;;6.07;4.55;;;31.50;37.90;;;;;;4338478;32;20085;-72
2021/08/02 07:20:39;;;;;;;6.03;4.68;;;31.00;37.80;;;;;;4346868;32;20086;-72
2021/08/02 07:23:06;;;;;;;8.35;4.35;;;31.50;37.40;;;;;;4351634;32;20086;-72
2021/08/02 07:25:33;;;;;;;6.53;4.75;;;31.20;36.60;;;;;;4340275;32;20213;-70
2021/08/02 07:27:59;;;;;;;7.78;4.72;;;31.50;36.20;;;;;;4343149;32;20087;-69
2021/08/02 07:30:26;;;;;;;6.30;4.30;;;31.20;38.00;;;;;;4335107;32;20067;-72
2021/08/02 07:32:52;;;;;;;6.05;4.78;;;31.60;36.70;;;;;;4338358;32;20445;-72
2021/08/02 07:35:18;;;;;;;4.35;3.95;;;31.50;35.50;;;;;;4346156;32;20132;-71
2021/08/02 07:37:44;;;;;;;7.57;4.80;;;31.50;36.70;;;;;;4363572;32;20189;-73
2021/08/02 07:40:11;;;;;;;5.50;4.10;;;31.50;34.60;;;;;;4347373;32;20057;-73
2021/08/02 07:42:39;;;;;;;6.28;4.18;;;31.80;35.10;;;;;;4335586;32;20100;-73
2021/08/02 07:45:06;;;;;;;6.12;4.75;;;31.50;34.70;;;;;;4348581;32;20127;-72
2021/08/02 07:47:33;;;;;;;7.47;4.47;;;31.90;35.00;;;;;;4374819;32;20496;-76
2021/08/02 07:49:59;;;;;;;7.25;4.10;;;31.70;35.10;;;;;;4352435;32;20066;-73
2021/08/02 07:52:26;;;;;;;5.07;4.30;;;31.70;32.30;;;;;;4317520;32;20444;-74
2021/08/02 07:54:52;;;;;;;6.78;4.75;;;32.00;35.20;;;;;;4349950;32;20070;-72
2021/08/02 07:57:19;;;;;;;5.35;4.05;;;32.10;33.60;;;;;;4347580;32;20151;-70
2021/08/02 07:59:45;;;;;;;6.00;4.22;;;31.80;32.40;;;;;;4337748;32;20191;-72
2021/08/02 08:02:11;;;;;;;5.95;4.20;;;31.70;31.40;;;;;;4347973;32;20184;-72
2021/08/02 08:04:37;;;;;;;5.10;4.40;;;32.10;31.80;;;;;;4341595;32;20162;-71
2021/08/02 08:07:04;;;;;;;5.72;4.05;;;32.20;30.60;;;;;;4346042;32;20073;-73
2021/08/02 08:09:30;;;;;;;5.10;3.70;;;32.30;31.60;;;;;;4338803;32;20077;-74
2021/08/02 08:11:57;;;;;;;6.87;4.47;;;32.20;30.70;;;;;;4324661;32;20089;-70
2021/08/02 08:14:23;;;;;;;5.43;3.97;;;32.30;29.90;;;;;;4363316;32;20155;-71
2021/08/02 08:16:50;;;;;;;6.03;3.65;;;32.40;30.70;;;;;;4332452;32;20098;-76
2021/08/02 08:19:16;;;;;;;5.00;4.10;;;32.20;31.80;;;;;;4330612;32;20171;-74
2021/08/02 08:21:43;;;;;;;5.85;4.15;;;32.40;32.60;;;;;;4335869;32;20472;-75
2021/08/02 08:24:09;;;;;;;5.00;4.00;;;32.30;31.40;;;;;;4336420;32;20197;-76
2021/08/02 08:26:35;;;;;;;6.97;4.22;;;32.20;28.90;;;;;;4350120;32;20464;-78
2021/08/02 08:29:06;;;;;;;5.22;4.22;;;32.30;28.90;;;;;;4325990;32;20086;-75
2021/08/02 08:31:33;;;;;;;8.98;4.75;;;32.00;29.30;;;;;;4362953;32;20078;-75
2021/08/02 08:33:59;;;;;;;5.15;4.53;;;31.80;29.80;;;;;;4339166;32;20101;-76
2021/08/02 08:36:26;;;;;;;5.60;4.43;;;32.30;29.70;;;;;;4337758;32;20090;-74
2021/08/02 08:38:52;;;;;;;6.82;4.12;;;32.30;30.40;;;;;;4350504;32;20076;-78
2021/08/02 08:41:19;;;;;;;6.90;4.53;;;32.20;30.20;;;;;;4338017;32;20057;-76
2021/08/02 08:43:50;;;;;;;7.18;4.00;;;32.20;30.20;;;;;;4350144;32;20150;-74
2021/08/02 08:46:23;;;;;;;6.60;4.37;;;31.90;30.30;;;;;;4349036;32;20065;-76
2021/08/02 08:48:50;;;;;;;6.03;4.68;;;31.70;31.20;;;;;;4354208;32;20564;-79
2021/08/02 08:51:16;;;;;;;6.00;4.93;;;32.30;31.00;;;;;;4313094;32;20077;-75
2021/08/02 08:53:44;;;;;;;6.32;4.35;;;32.20;30.70;;;;;;4343704;32;20074;-75
2021/08/02 08:56:11;;;;;;;6.03;4.87;;;32.60;30.50;;;;;;4337057;32;20523;-73
2021/08/02 08:58:38;;;;;;;6.18;4.53;;;32.50;30.30;;;;;;4331444;32;20094;-72
2021/08/02 09:01:05;;;;;;;7.05;4.47;;;32.20;30.30;;;;;;4349387;32;20085;-69
2021/08/02 09:03:31;;;;;;;7.70;4.45;;;32.20;30.60;;;;;;4349257;32;20511;-72
2021/08/02 09:06:05;;;;;;;6.45;4.55;;;32.60;30.10;;;;;;4336792;32;20058;-72
2021/08/02 09:08:43;;;;;;;5.43;4.12;;;32.80;29.30;;;;;;4337133;32;20066;-69
2021/08/02 09:11:19;;;;;;;6.10;4.60;;;32.50;29.40;;;;;;4320878;32;20134;-71
2021/08/02 09:13:45;;;;;;;7.53;4.15;;;33.00;29.40;;;;;;4327073;32;20154;-71
2021/08/02 09:16:25;;;;;;;6.10;5.00;;;33.10;30.00;;;;;;4349413;32;20181;-71
2021/08/02 09:19:04;;;;;;;6.70;5.00;;;32.60;30.30;;;;;;4336068;32;20163;-70
2021/08/02 09:21:41;;;;;;;6.47;4.47;;;32.40;30.40;;;;;;4345895;32;20070;-75
2021/08/02 09:24:07;;;;;;;7.07;4.43;;;32.70;30.30;;;;;;4337381;32;20098;-74
2021/08/02 09:26:37;;;;;;;6.12;4.62;;;32.80;30.10;;;;;;4339164;32;20070;-73
2021/08/02 09:29:04;;;;;;;4.65;3.20;;;33.30;29.90;;;;;;4337890;32;20081;-73
2021/08/02 09:31:39;;;;;;;5.95;4.47;;;33.10;29.90;;;;;;4349048;32;20192;-79
2021/08/02 09:34:09;;;;;;;7.75;3.90;;;32.90;27.90;;;;;;4312786;32;20066;-76
2021/08/02 09:36:53;;;;;;;4.97;4.00;;;33.10;25.70;;;;;;4347058;32;20073;-74
2021/08/02 09:39:20;;;;;;;6.25;4.45;;;32.90;27.70;;;;;;4355534;32;20074;-72
2021/08/02 09:41:46;;;;;;;7.28;4.87;;;33.50;27.90;;;;;;4332351;32;20078;-72
2021/08/02 09:44:32;;;;;;;6.30;4.93;;;33.70;26.70;;;;;;4331505;32;20062;-72
2021/08/02 09:47:08;;;;;;;6.03;4.45;;;32.70;27.90;;;;;;4337261;32;20081;-70
2021/08/02 09:49:46;;;;;;;5.70;4.22;;;32.70;28.60;;;;;;4353596;32;20493;-72
2021/08/02 09:52:12;;;;;;;6.47;4.60;;;32.90;28.30;;;;;;4337673;32;20070;-75
2021/08/02 09:54:39;;;;;;;6.25;4.32;;;32.70;28.50;;;;;;4337368;32;20496;-72
2021/08/02 09:57:05;;;;;;;7.30;4.62;;;33.00;28.50;;;;;;4343480;32;20207;-74
2021/08/02 09:59:32;;;;;;;8.13;5.45;;;33.20;28.40;;;;;;4324711;32;20074;-75
2021/08/02 10:01:58;;;;;;;5.55;4.80;;;33.00;28.90;;;;;;4349462;32;20078;-72
2021/08/02 10:04:25;;;;;;;7.35;4.78;;;33.10;27.80;;;;;;4349191;32;20100;-73
2021/08/02 10:06:52;;;;;;;5.82;5.20;;;33.10;28.60;;;;;;4331481;32;20093;-76
2021/08/02 10:09:18;;;;;;;6.53;4.45;;;32.70;27.80;;;;;;4323845;32;20069;-72
2021/08/02 10:11:44;;;;;;;5.70;4.40;;;32.50;28.60;;;;;;4348600;32;20171;-75
2021/08/02 10:14:13;;;;;;;5.70;3.62;;;33.00;28.20;;;;;;4336111;32;20066;-76
2021/08/02 10:16:42;;;;;;;5.18;3.90;;;33.50;27.60;;;;;;4339412;32;20096;-75
2021/08/02 10:19:09;;;;;;;5.80;4.25;;;33.40;28.50;;;;;;4338613;32;20110;-73
2021/08/02 10:21:48;;;;;;;5.45;4.32;;;33.50;28.00;;;;;;4348183;32;20081;-77
2021/08/02 10:24:16;;;;;;;7.97;4.12;;;33.90;28.20;;;;;;4328619;32;20079;-71
2021/08/02 10:26:56;;;;;;;6.95;4.20;;;33.70;28.70;;;;;;4349163;32;20113;-74
2021/08/02 10:29:23;;;;;;;5.35;4.60;;;33.90;27.30;;;;;;4326142;32;20128;-75
2021/08/02 10:31:51;;;;;;;6.70;4.30;;;33.80;27.20;;;;;;4350870;32;20569;-74
2021/08/02 10:34:21;;;;;;;7.72;4.53;;;34.30;27.50;;;;;;4339471;32;20074;-76
2021/08/02 10:37:02;;;;;;;5.85;4.75;;;33.10;27.70;;;;;;4348020;32;20094;-72
2021/08/02 10:39:32;;;;;;;12.20;4.45;;;33.40;27.10;;;;;;4328636;32;20500;-73
2021/08/02 10:42:10;;;;;;;6.45;4.50;;;33.60;27.70;;;;;;4358869;32;20077;-73
2021/08/02 10:44:36;;;;;;;6.20;4.90;;;33.20;27.30;;;;;;4346953;32;20094;-73
2021/08/02 10:47:05;;;;;;;8.50;5.20;;;33.60;27.20;;;;;;4339623;32;20063;-71
2021/08/02 10:49:32;;;;;;;5.80;4.50;;;33.70;27.20;;;;;;4317156;32;20581;-72
2021/08/02 10:51:59;;;;;;;5.55;4.03;;;33.70;28.20;;;;;;4313061;32;20078;-74
2021/08/02 10:54:37;;;;;;;7.95;4.57;;;33.70;28.70;;;;;;4350522;32;20113;-73
2021/08/02 10:57:14;;;;;;;6.10;4.32;;;33.70;27.50;;;;;;4325815;32;20109;-73
2021/08/02 10:59:40;;;;;;;5.53;4.43;;;33.50;27.30;;;;;;4364175;32;20089;-73
2021/08/02 11:02:10;;;;;;;9.60;4.65;;;33.40;28.00;;;;;;4340781;32;20234;-73
2021/08/02 11:04:41;;;;;;;5.15;4.55;;;33.90;28.20;;;;;;4329346;32;20069;-72
2021/08/02 11:07:07;;;;;;;6.30;4.18;;;33.70;27.70;;;;;;4336386;32;20094;-72
2021/08/02 11:09:36;;;;;;;7.50;4.95;;;33.90;27.30;;;;;;4350498;32;20070;-73
2021/08/02 11:12:11;;;;;;;8.10;4.75;;;33.70;27.90;;;;;;4349771;32;20172;-72
2021/08/02 11:14:51;;;;;;;6.10;4.62;;;33.50;27.90;;;;;;4353106;32;20085;-73
2021/08/02 11:17:21;;;;;;;7.28;4.60;;;33.70;27.50;;;;;;4336792;32;20083;-73
2021/08/02 11:19:52;;;;;;;7.43;4.47;;;33.70;27.60;;;;;;4349804;32;20508;-73
2021/08/02 11:22:18;;;;;;;7.35;5.40;;;33.60;28.10;;;;;;4338207;32;20505;-73
2021/08/02 11:24:57;;;;;;;5.75;5.00;;;33.50;27.60;;;;;;4350045;32;20113;-72
2021/08/02 11:27:23;;;;;;;6.90;4.60;;;33.70;27.30;;;;;;4349925;32;20146;-72
2021/08/02 11:29:52;;;;;;;9.13;5.25;;;34.00;26.90;;;;;;4337218;32;20179;-73
2021/08/02 11:32:22;;;;;;;6.93;4.70;;;33.70;26.30;;;;;;4337280;32;20165;-72
2021/08/02 11:34:57;;;;;;;5.53;4.43;;;33.40;26.90;;;;;;4337967;32;20082;-73
2021/08/02 11:37:25;;;;;;;6.50;5.50;;;33.10;27.50;;;;;;4358850;32;20097;-72
2021/08/02 11:40:06;;;;;;;5.10;4.35;;;33.60;27.60;;;;;;4348068;32;20089;-73
2021/08/02 11:42:33;;;;;;;6.00;4.80;;;34.20;27.00;;;;;;4337834;32;20078;-72
2021/08/02 11:45:02;;;;;;;6.03;4.32;;;34.40;27.30;;;;;;4337628;32;20461;-72
2021/08/02 11:47:32;;;;;;;5.53;4.28;;;35.00;26.00;;;;;;4352763;32;20440;-72
2021/08/02 11:49:59;;;;;;;5.90;4.50;;;34.20;26.00;;;;;;4338832;32;20120;-72
2021/08/02 11:52:26;;;;;;;5.62;4.68;;;34.20;26.10;;;;;;4338143;32;20182;-72
2021/08/02 11:55:08;;;;;;;6.50;4.72;;;34.10;26.50;;;;;;4337070;32;20166;-77
2021/08/02 11:57:35;;;;;;;6.15;4.60;;;35.00;25.60;;;;;;4356727;32;20149;-78
2021/08/02 12:00:12;;;;;;;6.50;4.87;;;34.10;25.60;;;;;;4326560;32;20062;-77
2021/08/02 12:02:40;;;;;;;5.60;4.62;;;34.10;26.30;;;;;;4352305;32;20072;-75
2021/08/02 12:05:20;;;;;;;5.18;4.32;;;34.40;25.90;;;;;;4341219;32;20151;-76
2021/08/02 12:07:46;;;;;;;8.13;4.60;;;34.20;27.30;;;;;;4360838;32;20070;-76
2021/08/02 12:10:24;;;;;;;4.55;3.80;;;34.00;26.70;;;;;;4338803;32;20123;-77
2021/08/02 12:13:05;;;;;;;6.72;4.40;;;34.00;26.30;;;;;;4328111;32;20504;-73
2021/08/02 12:15:32;;;;;;;8.32;4.20;;;34.20;26.20;;;;;;4326923;32;20473;-72
2021/08/02 12:17:59;;;;;;;7.18;4.35;;;34.50;26.70;;;;;;4334202;32;20460;-75
2021/08/02 12:20:36;;;;;;;5.25;4.10;;;34.00;26.00;;;;;;4350375;32;20481;-79
2021/08/02 12:23:05;;;;;;;5.60;4.50;;;34.30;26.30;;;;;;4340072;32;20082;-74
2021/08/02 12:25:46;;;;;;;5.80;4.25;;;34.30;25.90;;;;;;4345638;32;20488;-74
2021/08/02 12:28:13;;;;;;;7.03;4.87;;;34.10;25.80;;;;;;4336664;32;20084;-73
2021/08/02 12:30:40;;;;;;;8.73;4.35;;;33.50;27.00;;;;;;4346964;32;20197;-74
2021/08/02 12:33:39;;;;;;;7.37;4.30;;;33.80;27.30;;;;;;3844049;37;20074;-74
2021/08/02 12:36:06;;;;;;;6.18;4.47;;;34.30;26.40;;;;;;4376143;32;20154;-75
2021/08/02 12:38:32;;;;;;;7.87;4.55;;;34.60;26.20;;;;;;4405121;32;20065;-73
2021/08/02 12:40:59;;;;;;;6.35;4.40;;;34.80;25.60;;;;;;4416472;32;20076;-75
2021/08/02 12:43:26;;;;;;;6.00;3.55;;;34.80;25.70;;;;;;4389585;32;20066;-75
2021/08/02 12:45:52;;;;;;;5.60;4.50;;;34.60;26.50;;;;;;4384506;32;20181;-77
2021/08/02 12:48:18;;;;;;;5.40;4.30;;;34.70;26.50;;;;;;4389510;32;20133;-72
2021/08/02 12:50:44;;;;;;;5.97;4.35;;;34.60;25.70;;;;;;4410362;32;20112;-74
2021/08/02 12:53:10;;;;;;;6.70;4.32;;;34.80;26.00;;;;;;4383800;32;20505;-73
2021/08/02 12:55:37;;;;;;;5.30;4.12;;;35.10;26.00;;;;;;4394938;32;20532;-72
2021/08/02 12:58:03;;;;;;;6.45;4.47;;;34.60;27.10;;;;;;4387711;32;20184;-72